Disclaimer

Please do not use the information listed here in-flight or in-navigation, as they are not provided to us by the airports but are provided by volunteers, so they might be outdated.

Search


Regions


Airport information page

No radio frequency information is available.

Airport informations:
Latitude: 29° 42' 40.89" S
Longitude: 053° 41' 17.35" W
Elevation: 287 feet - 87 meters
Operating hours: Remarks
Operating agency: Military-civil joint use airport
Timezone: UTC-3(-2DT)
Fuel: Jet A1, without icing nhibitor.

100/130 octane gasoline, leaded, MIL-L-5572F (GREEN)

Runway information:
02/20 - 5785 x 100 feet< - >1763 x 30 meters
11/29 - 8858 x 148 feet< - >2700 x 45 meters

Recent METARs:
SBSM 202000Z 13007KT 100V160 CAVOK 29/11 Q1014
SBSM 202100Z 12006KT CAVOK 28/10 Q1014
SBSM 202100Z 12006KT CAVOK 28/10 Q1014

Airport on the map: